sensor_id;sensor_type;location;lat;lon;timestamp;P1;durP1;ratioP1;P2;durP2;ratioP2
45314;SDS011;31051;51.540;5.852;2023-08-17T00:02:52;4.3;;;2.0;;
45314;SDS011;31051;51.540;5.852;2023-08-17T00:15:50;3.4;;;1.9;;
45314;SDS011;31051;51.540;5.852;2023-08-17T00:28:39;3.7;;;1.9;;
45314;SDS011;31051;51.540;5.852;2023-08-17T00:41:28;3.8;;;1.8;;
45314;SDS011;31051;51.540;5.852;2023-08-17T00:54:27;3.5;;;1.9;;
45314;SDS011;31051;51.540;5.852;2023-08-17T01:07:27;4.4;;;1.8;;
45314;SDS011;31051;51.540;5.852;2023-08-17T01:20:25;4.1;;;2.0;;
45314;SDS011;31051;51.540;5.852;2023-08-17T01:33:14;4.6;;;2.0;;
45314;SDS011;31051;51.540;5.852;2023-08-17T01:46:03;4.4;;;1.9;;
45314;SDS011;31051;51.540;5.852;2023-08-17T01:59:01;5.2;;;2.2;;
45314;SDS011;31051;51.540;5.852;2023-08-17T02:11:51;5.4;;;2.3;;
45314;SDS011;31051;51.540;5.852;2023-08-17T02:24:50;5.2;;;2.3;;
45314;SDS011;31051;51.540;5.852;2023-08-17T02:37:49;4.5;;;2.4;;
45314;SDS011;31051;51.540;5.852;2023-08-17T02:50:49;5.1;;;2.2;;
45314;SDS011;31051;51.540;5.852;2023-08-17T03:03:48;7.9;;;2.7;;
45314;SDS011;31051;51.540;5.852;2023-08-17T03:16:48;5.6;;;2.4;;
45314;SDS011;31051;51.540;5.852;2023-08-17T03:29:47;4.9;;;2.4;;
45314;SDS011;31051;51.540;5.852;2023-08-17T03:42:47;4.5;;;2.6;;
45314;SDS011;31051;51.540;5.852;2023-08-17T03:55:45;5.2;;;2.7;;
45314;SDS011;31051;51.540;5.852;2023-08-17T04:08:34;6.4;;;2.5;;
45314;SDS011;31051;51.540;5.852;2023-08-17T04:21:34;4.6;;;2.2;;
45314;SDS011;31051;51.540;5.852;2023-08-17T04:34:33;5.3;;;2.6;;
45314;SDS011;31051;51.540;5.852;2023-08-17T04:47:32;5.5;;;2.8;;
45314;SDS011;31051;51.540;5.852;2023-08-17T05:00:32;4.9;;;3.0;;
45314;SDS011;31051;51.540;5.852;2023-08-17T05:13:31;7.7;;;3.3;;
45314;SDS011;31051;51.540;5.852;2023-08-17T05:26:31;6.0;;;2.9;;
45314;SDS011;31051;51.540;5.852;2023-08-17T05:39:30;5.9;;;3.0;;
45314;SDS011;31051;51.540;5.852;2023-08-17T05:52:29;6.3;;;3.0;;
45314;SDS011;31051;51.540;5.852;2023-08-17T06:05:29;6.6;;;3.1;;
45314;SDS011;31051;51.540;5.852;2023-08-17T06:18:27;5.3;;;2.9;;
45314;SDS011;31051;51.540;5.852;2023-08-17T06:31:17;5.1;;;2.9;;
45314;SDS011;31051;51.540;5.852;2023-08-17T06:44:16;6.3;;;3.1;;
45314;SDS011;31051;51.540;5.852;2023-08-17T06:57:15;6.3;;;2.7;;
45314;SDS011;31051;51.540;5.852;2023-08-17T07:10:03;5.9;;;2.6;;
45314;SDS011;31051;51.540;5.852;2023-08-17T07:22:51;6.2;;;2.7;;
45314;SDS011;31051;51.540;5.852;2023-08-17T07:35:40;6.9;;;2.8;;
45314;SDS011;31051;51.540;5.852;2023-08-17T07:48:39;6.9;;;2.8;;
45314;SDS011;31051;51.540;5.852;2023-08-17T08:01:27;8.9;;;2.8;;
45314;SDS011;31051;51.540;5.852;2023-08-17T08:14:15;7.0;;;2.9;;
45314;SDS011;31051;51.540;5.852;2023-08-17T08:27:05;7.7;;;3.0;;
45314;SDS011;31051;51.540;5.852;2023-08-17T08:40:04;10.6;;;3.4;;
45314;SDS011;31051;51.540;5.852;2023-08-17T08:53:04;11.6;;;3.5;;
45314;SDS011;31051;51.540;5.852;2023-08-17T09:06:02;12.7;;;4.5;;
45314;SDS011;31051;51.540;5.852;2023-08-17T09:18:50;8.1;;;4.4;;
45314;SDS011;31051;51.540;5.852;2023-08-17T09:31:40;17.5;;;5.5;;
45314;SDS011;31051;51.540;5.852;2023-08-17T09:44:39;13.2;;;5.6;;
45314;SDS011;31051;51.540;5.852;2023-08-17T09:57:38;20.0;;;6.5;;
45314;SDS011;31051;51.540;5.852;2023-08-17T10:10:37;17.6;;;6.3;;
45314;SDS011;31051;51.540;5.852;2023-08-17T10:23:37;13.2;;;6.3;;
45314;SDS011;31051;51.540;5.852;2023-08-17T10:36:35;12.5;;;6.3;;
45314;SDS011;31051;51.540;5.852;2023-08-17T10:49:24;8.9;;;5.3;;
45314;SDS011;31051;51.540;5.852;2023-08-17T11:02:13;21.3;;;6.1;;
45314;SDS011;31051;51.540;5.852;2023-08-17T11:15:11;16.2;;;5.7;;
45314;SDS011;31051;51.540;5.852;2023-08-17T11:28:00;8.5;;;4.8;;
45314;SDS011;31051;51.540;5.852;2023-08-17T11:40:49;10.7;;;5.6;;
45314;SDS011;31051;51.540;5.852;2023-08-17T11:53:48;8.6;;;5.4;;
45314;SDS011;31051;51.540;5.852;2023-08-17T12:06:37;16.5;;;6.5;;
45314;SDS011;31051;51.540;5.852;2023-08-17T12:19:35;13.1;;;6.3;;
45314;SDS011;31051;51.540;5.852;2023-08-17T12:32:24;14.6;;;6.7;;
45314;SDS011;31051;51.540;5.852;2023-08-17T12:45:12;10.2;;;6.5;;
45314;SDS011;31051;51.540;5.852;2023-08-17T12:58:01;15.9;;;6.4;;
45314;SDS011;31051;51.540;5.852;2023-08-17T13:10:49;13.4;;;7.3;;
45314;SDS011;31051;51.540;5.852;2023-08-17T13:23:48;10.2;;;6.7;;
45314;SDS011;31051;51.540;5.852;2023-08-17T13:36:47;13.2;;;7.3;;
45314;SDS011;31051;51.540;5.852;2023-08-17T13:49:36;11.9;;;7.3;;
45314;SDS011;31051;51.540;5.852;2023-08-17T14:02:35;9.6;;;7.5;;
45314;SDS011;31051;51.540;5.852;2023-08-17T14:15:23;11.5;;;7.7;;
45314;SDS011;31051;51.540;5.852;2023-08-17T14:28:12;8.7;;;6.5;;
45314;SDS011;31051;51.540;5.852;2023-08-17T14:41:00;14.7;;;7.8;;
45314;SDS011;31051;51.540;5.852;2023-08-17T14:53:48;14.1;;;8.1;;
45314;SDS011;31051;51.540;5.852;2023-08-17T15:19:37;16.1;;;9.3;;
45314;SDS011;31051;51.540;5.852;2023-08-17T15:32:37;13.9;;;9.1;;
45314;SDS011;31051;51.540;5.852;2023-08-17T15:45:35;10.7;;;8.9;;
45314;SDS011;31051;51.540;5.852;2023-08-17T15:58:23;15.6;;;9.2;;
45314;SDS011;31051;51.540;5.852;2023-08-17T16:11:12;14.5;;;9.8;;
45314;SDS011;31051;51.540;5.852;2023-08-17T16:24:00;12.9;;;10.1;;
45314;SDS011;31051;51.540;5.852;2023-08-17T16:36:48;12.1;;;10.3;;
45314;SDS011;31051;51.540;5.852;2023-08-17T16:49:37;15.2;;;10.6;;
45314;SDS011;31051;51.540;5.852;2023-08-17T17:02:25;14.5;;;11.1;;
45314;SDS011;31051;51.540;5.852;2023-08-17T17:15:14;11.7;;;9.8;;
45314;SDS011;31051;51.540;5.852;2023-08-17T17:28:13;12.2;;;10.0;;
45314;SDS011;31051;51.540;5.852;2023-08-17T17:54:01;11.6;;;10.0;;
45314;SDS011;31051;51.540;5.852;2023-08-17T18:06:50;13.3;;;10.9;;
45314;SDS011;31051;51.540;5.852;2023-08-17T18:19:48;13.5;;;12.1;;
45314;SDS011;31051;51.540;5.852;2023-08-17T18:32:38;13.3;;;12.1;;
45314;SDS011;31051;51.540;5.852;2023-08-17T18:45:36;13.6;;;12.3;;
45314;SDS011;31051;51.540;5.852;2023-08-17T18:58:26;14.5;;;13.1;;
45314;SDS011;31051;51.540;5.852;2023-08-17T19:11:24;14.9;;;13.5;;
45314;SDS011;31051;51.540;5.852;2023-08-17T19:24:12;15.8;;;14.3;;
45314;SDS011;31051;51.540;5.852;2023-08-17T19:37:01;15.5;;;14.1;;
45314;SDS011;31051;51.540;5.852;2023-08-17T19:49:50;16.1;;;14.5;;
45314;SDS011;31051;51.540;5.852;2023-08-17T20:02:49;15.9;;;14.4;;
45314;SDS011;31051;51.540;5.852;2023-08-17T20:15:38;15.8;;;14.2;;
45314;SDS011;31051;51.540;5.852;2023-08-17T20:28:37;14.7;;;13.4;;
45314;SDS011;31051;51.540;5.852;2023-08-17T20:41:37;12.3;;;11.1;;
45314;SDS011;31051;51.540;5.852;2023-08-17T20:54:36;11.9;;;10.9;;
45314;SDS011;31051;51.540;5.852;2023-08-17T21:07:35;11.4;;;10.4;;
45314;SDS011;31051;51.540;5.852;2023-08-17T21:20:24;11.6;;;10.5;;
45314;SDS011;31051;51.540;5.852;2023-08-17T21:33:22;10.4;;;9.4;;
45314;SDS011;31051;51.540;5.852;2023-08-17T21:46:11;9.5;;;8.6;;
45314;SDS011;31051;51.540;5.852;2023-08-17T21:58:59;8.6;;;7.8;;
45314;SDS011;31051;51.540;5.852;2023-08-17T22:11:48;8.4;;;7.5;;
